Time;durP1;ratioP1;P1;durP2;ratioP2;P2;SDS_P1;SDS_P2;PMS_P1;PMS_P2;Temp;Humidity;BMP_temperature;BMP_pressure;BME280_temperature;BME280_humidity;BME280_pressure;Samples;Min_cycle;Max_cycle;Signal;HPM_P1;HPM_P2
2023/04/16 04:01:38;;;;;;;6.07;4.55;;;8.30;99.90;;;;;;5334724;23;20237;-69
2023/04/16 04:04:05;;;;;;;5.10;3.60;;;8.30;99.90;;;;;;4915293;29;20222;-69
2023/04/16 04:06:31;;;;;;;8.15;6.50;;;8.30;99.90;;;;;;4916412;29;20214;-69
2023/04/16 04:08:58;;;;;;;4.50;4.18;;;8.30;99.90;;;;;;4916764;29;20228;-69
2023/04/16 04:11:25;;;;;;;5.15;4.63;;;8.30;99.90;;;;;;4916309;29;20711;-70
2023/04/16 04:13:52;;;;;;;9.75;7.05;;;8.30;99.90;;;;;;4916575;29;20704;-68
2023/04/16 04:16:18;;;;;;;5.07;4.15;;;8.30;99.90;;;;;;4916764;29;20230;-69
2023/04/16 04:18:46;;;;;;;5.50;5.15;;;8.30;99.90;;;;;;4916020;29;20202;-69
2023/04/16 04:21:13;;;;;;;8.40;4.45;;;8.30;99.90;;;;;;4915812;29;20230;-69
2023/04/16 04:23:41;;;;;;;5.75;4.50;;;8.30;99.90;;;;;;4916076;29;20229;-69
2023/04/16 04:26:08;;;;;;;9.15;5.43;;;8.30;99.90;;;;;;4916024;29;20215;-69
2023/04/16 04:28:35;;;;;;;6.63;4.97;;;8.30;99.90;;;;;;4916913;29;20222;-69
2023/04/16 04:31:02;;;;;;;5.00;4.60;;;8.40;99.90;;;;;;4915683;29;20226;-69
2023/04/16 04:33:29;;;;;;;11.07;6.43;;;8.40;99.90;;;;;;4911813;29;20210;-69
2023/04/16 04:35:57;;;;;;;9.52;6.75;;;8.40;99.90;;;;;;4915661;29;20234;-69
2023/04/16 04:38:24;;;;;;;6.88;4.47;;;8.40;99.90;;;;;;4916335;29;20206;-69
2023/04/16 04:40:51;;;;;;;8.55;6.40;;;8.40;99.90;;;;;;4915151;29;20904;-69
2023/04/16 04:43:18;;;;;;;7.25;6.57;;;8.40;99.90;;;;;;4915412;29;20590;-69
2023/04/16 04:45:45;;;;;;;6.07;4.63;;;8.40;99.90;;;;;;4916076;29;20678;-69
2023/04/16 04:48:11;;;;;;;6.38;5.20;;;8.40;99.90;;;;;;4914215;29;20211;-69
2023/04/16 04:50:39;;;;;;;7.85;6.50;;;8.40;99.90;;;;;;4915876;29;20230;-69
2023/04/16 04:53:10;;;;;;;5.65;4.03;;;8.40;99.90;;;;;;4915373;29;20238;-69
2023/04/16 04:55:37;;;;;;;7.45;5.43;;;8.40;99.90;;;;;;4915029;29;20219;-69
2023/04/16 04:58:04;;;;;;;7.97;6.63;;;8.40;99.90;;;;;;4915890;29;20356;-69
2023/04/16 05:00:31;;;;;;;5.63;5.13;;;8.40;99.90;;;;;;4914945;29;20230;-69
2023/04/16 05:02:58;;;;;;;5.78;5.32;;;8.40;99.90;;;;;;4912463;29;20233;-69
2023/04/16 05:05:25;;;;;;;10.95;5.60;;;8.40;99.90;;;;;;4914236;29;20206;-69
2023/04/16 05:07:51;;;;;;;6.70;4.32;;;8.40;99.90;;;;;;4915468;29;20234;-69
2023/04/16 05:10:20;;;;;;;4.78;4.22;;;8.40;99.90;;;;;;4914549;29;20217;-69
2023/04/16 05:12:47;;;;;;;4.82;4.50;;;8.50;99.90;;;;;;4915435;29;20636;-69
2023/04/16 05:15:14;;;;;;;6.55;5.63;;;8.50;99.90;;;;;;4915138;29;20236;-69
2023/04/16 05:17:41;;;;;;;5.97;5.53;;;8.50;99.90;;;;;;4915553;29;20222;-69
2023/04/16 05:20:09;;;;;;;9.38;6.05;;;8.50;99.90;;;;;;4915494;29;20730;-69
2023/04/16 05:22:36;;;;;;;5.97;5.57;;;8.50;99.90;;;;;;4915400;29;20635;-69
2023/04/16 05:25:02;;;;;;;8.40;7.57;;;8.60;99.90;;;;;;4913294;29;20210;-68
2023/04/16 05:27:30;;;;;;;9.50;5.25;;;8.60;99.90;;;;;;4915337;29;20269;-68
2023/04/16 05:29:57;;;;;;;14.65;5.82;;;8.50;99.90;;;;;;4914431;29;20676;-68
2023/04/16 05:32:25;;;;;;;12.77;6.22;;;8.60;99.90;;;;;;4915338;29;20230;-68
2023/04/16 05:34:52;;;;;;;6.93;5.30;;;8.60;99.90;;;;;;4912259;29;20211;-69
2023/04/16 05:37:18;;;;;;;8.25;4.72;;;8.60;99.90;;;;;;4915140;29;20211;-69
2023/04/16 05:39:45;;;;;;;10.23;5.15;;;8.60;99.90;;;;;;4913761;29;20211;-68
2023/04/16 05:42:12;;;;;;;6.57;4.22;;;8.60;99.90;;;;;;4913689;29;20230;-69
2023/04/16 05:44:40;;;;;;;6.22;5.82;;;8.70;99.90;;;;;;4914615;29;20207;-69
2023/04/16 05:47:08;;;;;;;6.13;3.90;;;8.70;99.90;;;;;;4915199;29;20246;-68
2023/04/16 05:49:35;;;;;;;5.20;4.80;;;8.70;99.90;;;;;;4915060;29;20619;-68
2023/04/16 05:52:01;;;;;;;7.35;5.43;;;8.70;99.90;;;;;;4913758;29;20261;-68
2023/04/16 05:54:28;;;;;;;11.77;7.05;;;8.70;99.90;;;;;;4913402;29;20222;-69
2023/04/16 05:56:55;;;;;;;13.63;5.78;;;8.70;99.90;;;;;;4915776;29;20210;-69
2023/04/16 05:59:22;;;;;;;6.78;5.25;;;8.70;99.90;;;;;;4916230;29;20215;-68
2023/04/16 06:01:50;;;;;;;5.65;4.90;;;8.80;99.90;;;;;;4922922;29;20325;-68
2023/04/16 06:04:16;;;;;;;8.85;4.60;;;8.80;99.90;;;;;;4917322;29;20217;-68
2023/04/16 06:06:43;;;;;;;8.45;6.47;;;8.80;99.90;;;;;;4918950;29;20211;-69
2023/04/16 06:09:10;;;;;;;7.95;4.57;;;8.80;99.90;;;;;;4916981;29;20207;-70
2023/04/16 06:11:37;;;;;;;9.77;7.55;;;8.80;99.90;;;;;;4916193;29;20597;-69
2023/04/16 06:14:04;;;;;;;6.53;5.22;;;8.90;99.90;;;;;;4915600;29;20570;-69
2023/04/16 06:16:31;;;;;;;5.90;5.35;;;8.90;99.90;;;;;;4915718;29;20225;-69
2023/04/16 06:18:59;;;;;;;10.30;5.82;;;8.90;99.90;;;;;;4915202;29;20298;-69
2023/04/16 06:21:26;;;;;;;6.60;5.38;;;8.90;99.90;;;;;;4914339;29;20245;-69
2023/04/16 06:23:52;;;;;;;5.25;4.78;;;8.90;99.90;;;;;;4914184;29;20211;-69
2023/04/16 06:26:19;;;;;;;6.63;6.03;;;9.00;99.90;;;;;;4914202;29;20251;-69
2023/04/16 06:28:46;;;;;;;3.50;3.20;;;8.90;99.90;;;;;;4914585;29;20214;-69
2023/04/16 06:31:13;;;;;;;5.68;4.55;;;8.90;99.90;;;;;;4914249;29;20254;-69
2023/04/16 06:33:39;;;;;;;6.30;5.65;;;8.90;99.90;;;;;;4913529;29;20667;-69
2023/04/16 06:36:08;;;;;;;6.95;6.20;;;8.90;99.90;;;;;;4913924;29;20245;-69
2023/04/16 06:38:36;;;;;;;6.10;4.80;;;9.00;99.90;;;;;;4912146;29;20207;-69
2023/04/16 06:41:03;;;;;;;6.38;5.75;;;9.00;99.90;;;;;;4913611;29;20269;-69
2023/04/16 06:43:31;;;;;;;10.88;6.78;;;9.00;99.90;;;;;;4913597;29;20222;-69
2023/04/16 06:45:58;;;;;;;7.90;5.30;;;9.00;99.90;;;;;;4914166;29;20214;-68
2023/04/16 06:48:24;;;;;;;5.15;4.65;;;9.10;99.90;;;;;;4914245;29;20221;-69
2023/04/16 06:50:51;;;;;;;13.25;7.60;;;9.00;99.90;;;;;;4913155;29;20235;-68
2023/04/16 06:53:19;;;;;;;5.05;4.55;;;9.10;99.90;;;;;;4913698;29;20574;-68
2023/04/16 06:55:46;;;;;;;10.50;7.68;;;9.10;99.90;;;;;;4913600;29;20588;-68
2023/04/16 06:58:13;;;;;;;11.48;6.35;;;9.10;99.90;;;;;;4914198;29;20225;-68
2023/04/16 07:00:39;;;;;;;6.40;5.50;;;9.10;99.90;;;;;;4913992;29;20238;-68
2023/04/16 07:03:06;;;;;;;5.97;5.30;;;9.20;99.90;;;;;;4913919;29;20206;-69
2023/04/16 07:05:33;;;;;;;3.53;3.22;;;9.20;99.90;;;;;;4912518;29;20576;-69
2023/04/16 07:08:00;;;;;;;6.28;5.70;;;9.20;99.90;;;;;;4913886;29;20202;-68
2023/04/16 07:10:28;;;;;;;8.73;7.22;;;9.10;99.90;;;;;;4914006;29;20718;-68
2023/04/16 07:12:54;;;;;;;6.22;5.45;;;9.10;99.90;;;;;;4914175;29;20210;-68
2023/04/16 07:15:22;;;;;;;7.57;6.45;;;9.20;99.90;;;;;;4913044;29;20306;-69
2023/04/16 07:17:49;;;;;;;8.38;5.85;;;9.20;99.90;;;;;;4912981;29;20217;-69
2023/04/16 07:20:16;;;;;;;8.52;5.90;;;9.20;99.90;;;;;;4913941;29;20590;-69
2023/04/16 07:22:43;;;;;;;6.85;5.40;;;9.20;99.90;;;;;;4913718;29;20210;-69
2023/04/16 07:25:10;;;;;;;8.02;6.00;;;9.30;99.90;;;;;;4912978;29;20211;-69
2023/04/16 07:27:38;;;;;;;5.28;4.82;;;9.30;99.90;;;;;;4914079;29;20222;-69
2023/04/16 07:30:06;;;;;;;6.13;5.60;;;9.40;99.90;;;;;;4913833;29;20239;-69
2023/04/16 07:32:33;;;;;;;6.40;5.03;;;9.40;99.90;;;;;;4913014;29;20269;-69
2023/04/16 07:35:00;;;;;;;9.63;6.65;;;9.40;99.90;;;;;;4911397;29;20217;-69
2023/04/16 07:37:27;;;;;;;13.70;8.02;;;9.40;99.90;;;;;;4913526;29;20226;-69
2023/04/16 07:39:56;;;;;;;7.03;5.72;;;9.50;99.90;;;;;;4913227;29;20217;-69
2023/04/16 07:42:23;;;;;;;5.25;4.75;;;9.50;99.90;;;;;;4913410;29;20269;-70
2023/04/16 07:44:51;;;;;;;5.60;5.05;;;9.60;99.90;;;;;;4912350;29;20310;-69
2023/04/16 07:47:17;;;;;;;10.93;7.05;;;9.70;99.90;;;;;;4906296;29;20202;-69
2023/04/16 07:49:44;;;;;;;8.38;6.70;;;9.70;99.90;;;;;;4913855;29;20217;-69
2023/04/16 07:52:11;;;;;;;12.70;6.30;;;9.70;99.90;;;;;;4913384;29;20226;-69
2023/04/16 07:54:38;;;;;;;11.48;6.10;;;9.80;99.90;;;;;;4912790;29;20559;-69
2023/04/16 07:57:04;;;;;;;4.25;3.67;;;9.80;99.90;;;;;;4912489;29;20221;-69
2023/04/16 07:59:31;;;;;;;5.78;5.25;;;9.80;99.90;;;;;;4913802;29;20207;-69
2023/04/16 08:01:59;;;;;;;8.63;6.43;;;9.80;99.90;;;;;;4913273;29;20242;-68
2023/04/16 08:04:26;;;;;;;9.50;6.18;;;9.90;99.90;;;;;;4912873;29;20301;-68
2023/04/16 08:06:53;;;;;;;5.75;5.25;;;9.90;99.90;;;;;;4913146;29;20237;-69
2023/04/16 08:09:20;;;;;;;5.93;5.18;;;9.90;99.90;;;;;;4911837;29;20210;-69
2023/04/16 08:11:48;;;;;;;8.73;7.80;;;10.00;99.90;;;;;;4913288;29;20289;-67
2023/04/16 08:14:15;;;;;;;6.40;5.63;;;10.10;99.90;;;;;;4912984;29;20332;-67
2023/04/16 08:16:42;;;;;;;6.00;4.93;;;10.20;99.90;;;;;;4916941;29;20219;-67
2023/04/16 08:19:11;;;;;;;6.80;5.68;;;10.30;99.90;;;;;;4917604;29;20214;-68
2023/04/16 08:21:38;;;;;;;8.63;7.60;;;10.40;99.90;;;;;;4916771;29;20231;-68
2023/04/16 08:24:05;;;;;;;6.13;5.50;;;10.40;99.90;;;;;;4914909;29;20210;-68
2023/04/16 08:26:32;;;;;;;6.97;5.57;;;10.50;99.90;;;;;;4916089;29;20698;-68
2023/04/16 08:28:58;;;;;;;7.35;6.60;;;10.50;99.90;;;;;;4915447;29;20217;-68
2023/04/16 08:31:25;;;;;;;6.75;6.15;;;10.50;99.90;;;;;;4917094;29;20219;-68
2023/04/16 08:33:52;;;;;;;11.40;7.22;;;10.50;99.90;;;;;;4920210;29;20214;-68
2023/04/16 08:36:20;;;;;;;11.10;6.97;;;10.70;99.90;;;;;;4926080;29;20449;-69
2023/04/16 08:38:47;;;;;;;11.35;6.68;;;10.80;99.90;;;;;;4928612;29;20239;-69
2023/04/16 08:41:14;;;;;;;10.30;6.03;;;10.90;99.90;;;;;;4926789;29;20234;-68
2023/04/16 08:43:44;;;;;;;11.10;5.60;;;10.90;99.90;;;;;;4918300;29;20644;-68
2023/04/16 08:46:11;;;;;;;7.40;5.05;;;10.80;99.90;;;;;;4917606;29;20203;-68
2023/04/16 08:48:41;;;;;;;8.48;5.53;;;10.90;99.90;;;;;;4916824;29;20214;-68
2023/04/16 08:51:10;;;;;;;11.63;7.20;;;10.80;99.90;;;;;;4916770;29;20238;-68
2023/04/16 08:53:43;;;;;;;15.10;8.25;;;10.80;99.90;;;;;;4916009;29;20691;-68
2023/04/16 08:56:11;;;;;;;7.63;6.20;;;10.70;99.90;;;;;;4915848;29;20218;-68
2023/04/16 08:58:40;;;;;;;10.35;8.35;;;10.70;99.90;;;;;;4914943;29;20225;-68
2023/04/16 09:01:09;;;;;;;7.13;5.50;;;10.70;99.90;;;;;;4915578;29;20235;-68
2023/04/16 09:03:36;;;;;;;11.38;8.13;;;10.70;99.90;;;;;;4914414;29;20226;-68
2023/04/16 09:06:04;;;;;;;10.00;6.32;;;10.70;99.90;;;;;;4914982;29;20206;-68
2023/04/16 09:08:32;;;;;;;16.90;5.85;;;10.70;99.90;;;;;;4915738;29;20222;-68
2023/04/16 09:11:00;;;;;;;9.45;6.50;;;10.80;99.90;;;;;;4915317;29;20233;-69
2023/04/16 09:13:27;;;;;;;11.57;5.50;;;10.80;99.90;;;;;;4914260;29;20214;-69
2023/04/16 09:15:55;;;;;;;8.38;6.55;;;10.90;99.90;;;;;;4915607;29;20214;-69
2023/04/16 09:18:22;;;;;;;8.52;7.63;;;10.90;99.90;;;;;;4915545;29;20250;-69
2023/04/16 09:20:50;;;;;;;10.67;7.53;;;10.90;99.90;;;;;;4915498;29;20254;-69
2023/04/16 09:23:17;;;;;;;6.93;6.27;;;10.90;99.90;;;;;;4914898;29;20463;-69
2023/04/16 09:25:44;;;;;;;13.40;7.72;;;10.90;99.90;;;;;;4914673;29;20478;-68
2023/04/16 09:28:12;;;;;;;5.63;4.90;;;10.90;99.90;;;;;;4914701;29;20238;-68
2023/04/16 09:30:39;;;;;;;5.17;4.67;;;10.90;99.90;;;;;;4916184;29;20227;-68
2023/04/16 09:33:15;;;;;;;11.10;6.10;;;11.00;99.90;;;;;;4913065;29;20474;-68
2023/04/16 09:35:46;;;;;;;12.10;6.83;;;11.00;99.90;;;;;;4915322;29;20470;-68
2023/04/16 09:38:13;;;;;;;4.95;4.55;;;11.10;99.90;;;;;;4915242;29;20530;-67
2023/04/16 09:40:39;;;;;;;8.40;6.13;;;11.10;99.90;;;;;;4914916;29;20242;-68
2023/04/16 09:43:12;;;;;;;10.30;7.50;;;11.20;99.90;;;;;;4912863;29;20493;-68
2023/04/16 09:45:49;;;;;;;6.80;5.83;;;11.20;99.90;;;;;;4915129;29;21042;-68
2023/04/16 09:48:16;;;;;;;6.90;5.50;;;11.40;99.90;;;;;;4916287;29;20849;-68
2023/04/16 09:50:50;;;;;;;9.10;5.97;;;11.50;99.90;;;;;;4915236;29;20490;-68
2023/04/16 09:53:24;;;;;;;16.77;5.63;;;11.50;99.90;;;;;;4913773;29;20713;-68
2023/04/16 09:55:50;;;;;;;8.80;5.63;;;11.40;99.90;;;;;;4914189;29;20474;-68
2023/04/16 09:58:20;;;;;;;13.27;6.73;;;11.50;99.90;;;;;;4913441;29;20472;-68
2023/04/16 10:00:46;;;;;;;6.57;5.28;;;11.50;99.90;;;;;;4914771;29;20565;-68
2023/04/16 10:03:13;;;;;;;5.90;5.40;;;11.40;99.90;;;;;;4914808;29;20254;-68
2023/04/16 10:05:40;;;;;;;7.53;5.17;;;11.40;99.90;;;;;;4914666;29;20478;-68
2023/04/16 10:08:12;;;;;;;9.90;6.23;;;11.30;99.90;;;;;;4914423;29;20470;-68
2023/04/16 10:10:40;;;;;;;10.60;7.23;;;11.30;99.90;;;;;;4913982;29;20490;-68
2023/04/16 10:13:07;;;;;;;11.60;7.28;;;11.20;99.90;;;;;;4914537;29;20537;-68
2023/04/16 10:15:36;;;;;;;13.30;5.22;;;11.20;99.90;;;;;;4917014;23;20234;-68
2023/04/16 10:18:04;;;;;;;3.85;3.60;;;11.20;99.90;;;;;;4896277;29;20233;-69
2023/04/16 10:20:31;;;;;;;8.10;5.70;;;11.20;99.90;;;;;;4896482;29;20227;-70
2023/04/16 10:22:59;;;;;;;8.45;5.43;;;11.10;99.90;;;;;;4896508;29;20495;-69
2023/04/16 10:25:27;;;;;;;8.60;6.53;;;11.10;99.90;;;;;;4896636;29;20246;-70
2023/04/16 10:27:55;;;;;;;7.00;6.30;;;11.10;99.90;;;;;;4896621;29;20215;-71
2023/04/16 10:30:26;;;;;;;7.13;6.43;;;11.20;99.90;;;;;;4896572;29;20278;-68
2023/04/16 10:32:55;;;;;;;10.48;6.50;;;11.10;99.90;;;;;;4896638;29;20211;-69
2023/04/16 10:35:25;;;;;;;12.05;6.05;;;11.20;99.90;;;;;;4896043;29;20596;-70
2023/04/16 10:37:56;;;;;;;6.28;5.57;;;11.20;99.90;;;;;;4893675;29;20222;-70
2023/04/16 10:40:25;;;;;;;9.17;8.00;;;11.20;99.90;;;;;;4881511;29;20199;-68
2023/04/16 10:42:56;;;;;;;7.57;6.97;;;11.30;99.90;;;;;;4895772;29;20558;-68
2023/04/16 10:45:29;;;;;;;5.53;5.10;;;11.30;99.90;;;;;;4895705;29;20521;-69
2023/04/16 10:47:58;;;;;;;5.50;5.00;;;11.40;99.90;;;;;;4895563;29;20206;-70
2023/04/16 10:50:24;;;;;;;6.10;5.50;;;11.40;99.90;;;;;;4895666;29;20960;-69
2023/04/16 10:53:17;;;;;;;8.20;6.53;;;11.50;99.90;;;;;;4894953;29;20472;-69
2023/04/16 10:56:14;;;;;;;5.87;5.33;;;11.60;99.90;;;;;;4895311;29;20495;-68
2023/04/16 10:58:41;;;;;;;3.30;2.90;;;11.70;99.90;;;;;;4895603;29;20540;-69
2023/04/16 11:01:13;;;;;;;9.43;4.70;;;11.70;99.90;;;;;;4895864;29;20512;-69
2023/04/16 11:03:46;;;;;;;7.80;7.00;;;11.80;99.90;;;;;;4895300;29;20980;-68
2023/04/16 11:06:16;;;;;;;8.87;6.07;;;11.90;99.90;;;;;;4895329;29;20487;-69
2023/04/16 11:08:44;;;;;;;8.13;5.27;;;11.90;99.90;;;;;;4895380;29;20489;-70
2023/04/16 11:11:11;;;;;;;5.53;4.73;;;12.10;99.90;;;;;;4895360;29;20475;-70
2023/04/16 11:13:38;;;;;;;6.03;5.07;;;12.40;99.90;;;;;;4895238;29;20844;-69
2023/04/16 11:16:06;;;;;;;7.23;4.83;;;12.50;99.90;;;;;;4895078;29;20522;-69
2023/04/16 11:18:32;;;;;;;7.20;4.53;;;12.60;99.90;;;;;;4894765;29;20498;-69
2023/04/16 11:21:00;;;;;;;6.27;5.67;;;12.50;99.90;;;;;;4895159;29;20471;-70
2023/04/16 11:23:27;;;;;;;6.50;5.00;;;12.50;99.90;;;;;;4895579;29;20517;-70
2023/04/16 11:25:56;;;;;;;6.63;5.97;;;12.60;99.90;;;;;;4895315;29;20499;-69
2023/04/16 11:28:33;;;;;;;5.13;4.83;;;12.90;99.90;;;;;;4895564;29;20631;-68
2023/04/16 11:30:59;;;;;;;8.57;6.20;;;13.20;99.90;;;;;;4895494;29;20471;-69
2023/04/16 11:33:26;;;;;;;4.63;4.20;;;13.40;99.90;;;;;;4894386;29;20525;-69
2023/04/16 11:35:57;;;;;;;9.40;5.70;;;13.50;99.90;;;;;;4894963;29;20483;-69
2023/04/16 11:38:35;;;;;;;7.03;3.17;;;13.50;99.90;;;;;;4895524;29;20507;-69
2023/04/16 11:41:01;;;;;;;5.60;5.03;;;13.30;99.90;;;;;;4894987;29;20471;-70
2023/04/16 11:43:28;;;;;;;5.97;3.83;;;13.40;99.90;;;;;;4894960;29;20498;-68
2023/04/16 11:45:57;;;;;;;4.87;4.33;;;13.50;99.90;;;;;;4895294;29;20491;-69
2023/04/16 11:48:24;;;;;;;5.03;4.63;;;13.70;99.90;;;;;;4887466;29;20471;-70
2023/04/16 11:50:56;;;;;;;5.83;5.33;;;13.70;99.90;;;;;;4897388;29;20474;-70
2023/04/16 11:53:23;;;;;;;4.17;3.90;;;13.70;99.90;;;;;;4898477;29;20506;-69
2023/04/16 11:55:51;;;;;;;5.03;4.63;;;13.60;99.90;;;;;;4898166;29;20495;-70
2023/04/16 11:58:20;;;;;;;8.40;4.77;;;13.60;99.90;;;;;;4898580;29;20467;-70
2023/04/16 12:00:48;;;;;;;9.57;5.97;;;13.50;99.90;;;;;;4898453;29;20490;-68
2023/04/16 12:03:15;;;;;;;5.70;4.60;;;13.60;99.90;;;;;;4879975;29;20977;-69
2023/04/16 12:05:41;;;;;;;4.80;4.07;;;13.60;99.90;;;;;;4894123;29;20487;-69
2023/04/16 12:08:09;;;;;;;4.13;3.83;;;13.50;99.90;;;;;;4898448;29;20467;-69
2023/04/16 12:10:38;;;;;;;5.30;4.80;;;13.60;99.90;;;;;;4898063;29;20952;-70
2023/04/16 12:13:13;;;;;;;4.00;3.60;;;13.70;99.90;;;;;;4898269;29;20468;-69
2023/04/16 12:15:47;;;;;;;6.33;4.40;;;13.70;99.90;;;;;;4895687;29;20503;-68
2023/04/16 12:18:14;;;;;;;7.80;4.67;;;13.70;99.90;;;;;;4898419;29;20493;-68
2023/04/16 12:20:42;;;;;;;5.27;4.87;;;13.50;99.90;;;;;;4898204;29;20532;-69
2023/04/16 12:23:09;;;;;;;6.33;4.67;;;13.30;99.90;;;;;;4898004;29;20514;-70
2023/04/16 12:25:36;;;;;;;4.30;4.00;;;13.20;99.90;;;;;;4886568;29;20859;-70
2023/04/16 12:28:03;;;;;;;4.13;3.77;;;13.20;99.90;;;;;;4887449;29;20479;-72
2023/04/16 12:30:31;;;;;;;3.53;2.93;;;13.20;99.90;;;;;;4897413;29;20495;-69
2023/04/16 12:33:13;;;;;;;5.87;5.17;;;13.20;99.90;;;;;;4894081;29;20469;-70
2023/04/16 12:35:42;;;;;;;3.97;3.67;;;13.10;99.90;;;;;;4897557;29;20570;-70
2023/04/16 12:38:09;;;;;;;4.57;4.17;;;13.00;99.90;;;;;;4897735;29;20471;-70
2023/04/16 12:40:36;;;;;;;3.77;3.43;;;12.80;99.90;;;;;;4897752;29;20471;-69
2023/04/16 12:43:03;;;;;;;3.47;3.27;;;12.70;99.90;;;;;;4897973;29;20498;-68
2023/04/16 12:45:31;;;;;;;7.10;3.93;;;12.60;99.90;;;;;;4895820;29;20503;-69
2023/04/16 12:47:57;;;;;;;3.83;3.53;;;12.60;99.90;;;;;;4897668;29;20992;-69
2023/04/16 12:50:24;;;;;;;4.20;3.83;;;12.40;99.90;;;;;;4897961;29;20961;-68
2023/04/16 12:52:51;;;;;;;6.30;4.23;;;12.30;99.90;;;;;;4897235;29;20469;-69
2023/04/16 12:55:19;;;;;;;3.90;3.57;;;12.30;99.90;;;;;;4896640;29;20495;-69
2023/04/16 12:57:47;;;;;;;4.37;4.03;;;12.30;99.90;;;;;;4894627;29;20571;-68
2023/04/16 13:00:16;;;;;;;5.13;3.43;;;12.30;99.90;;;;;;4878572;29;20480;-69
2023/04/16 13:02:44;;;;;;;5.87;5.00;;;12.20;99.90;;;;;;4878725;29;20488;-68
2023/04/16 13:05:11;;;;;;;6.40;4.97;;;12.10;99.90;;;;;;4878484;29;20494;-68
2023/04/16 13:07:38;;;;;;;3.90;3.60;;;12.10;99.90;;;;;;4878640;29;20480;-68
2023/04/16 13:10:06;;;;;;;5.57;5.07;;;12.30;99.90;;;;;;4878669;29;20476;-68
2023/04/16 13:12:33;;;;;;;8.93;5.50;;;12.20;99.90;;;;;;4892909;29;20965;-70
2023/04/16 13:14:59;;;;;;;6.13;5.53;;;12.30;99.90;;;;;;4896673;29;20491;-69
2023/04/16 13:17:26;;;;;;;4.03;3.70;;;12.30;99.90;;;;;;4897441;29;20944;-70
2023/04/16 13:20:02;;;;;;;4.97;4.57;;;12.30;99.90;;;;;;4896962;29;20467;-71
2023/04/16 13:22:28;;;;;;;5.87;5.23;;;12.30;99.90;;;;;;4896944;29;20498;-71
2023/04/16 13:24:55;;;;;;;8.53;4.90;;;12.30;99.90;;;;;;4895155;29;20498;-70
2023/04/16 13:27:22;;;;;;;5.33;4.90;;;12.40;99.90;;;;;;4897234;29;20516;-70
2023/04/16 13:29:49;;;;;;;6.40;5.53;;;12.40;99.90;;;;;;4896914;29;20531;-69
2023/04/16 13:32:17;;;;;;;6.73;5.37;;;12.40;99.90;;;;;;4896856;29;20474;-70
2023/04/16 13:34:44;;;;;;;8.80;4.30;;;12.40;99.90;;;;;;4887899;29;20541;-70
2023/04/16 13:37:12;;;;;;;5.40;4.67;;;12.40;99.90;;;;;;4897179;29;20470;-71
2023/04/16 13:39:39;;;;;;;4.43;4.10;;;12.50;99.90;;;;;;4897964;29;20565;-70
2023/04/16 13:42:06;;;;;;;4.13;3.73;;;12.50;99.90;;;;;;4891137;29;20473;-71
2023/04/16 13:44:33;;;;;;;4.63;4.13;;;12.50;99.90;;;;;;4892166;29;21047;-71
2023/04/16 13:46:59;;;;;;;5.67;5.27;;;12.60;99.90;;;;;;4895079;29;20483;-70
2023/04/16 13:49:26;;;;;;;4.93;4.10;;;12.60;99.90;;;;;;4891109;29;20471;-69
2023/04/16 13:51:53;;;;;;;5.80;5.30;;;12.70;99.90;;;;;;4896907;29;20467;-70
2023/04/16 13:54:21;;;;;;;6.37;4.13;;;12.60;99.90;;;;;;4896239;29;20474;-69
2023/04/16 13:56:49;;;;;;;4.90;2.70;;;12.50;99.90;;;;;;4897016;29;20555;-70
2023/04/16 13:59:16;;;;;;;3.63;3.40;;;12.40;99.90;;;;;;4896612;29;20482;-69
2023/04/16 14:01:42;;;;;;;7.80;4.53;;;12.30;99.90;;;;;;4891246;29;20478;-69
2023/04/16 14:04:09;;;;;;;7.17;4.77;;;12.50;99.90;;;;;;4895784;29;20502;-70
2023/04/16 14:06:36;;;;;;;5.50;4.00;;;12.70;99.90;;;;;;4896314;29;20474;-69
2023/04/16 14:09:03;;;;;;;4.77;4.30;;;12.80;99.90;;;;;;4896456;29;20974;-70
2023/04/16 14:11:31;;;;;;;4.70;4.23;;;12.90;99.90;;;;;;4896150;29;20471;-70
2023/04/16 14:13:58;;;;;;;3.40;2.83;;;12.60;99.90;;;;;;4893992;29;20475;-70
2023/04/16 14:16:26;;;;;;;8.00;5.83;;;12.50;99.90;;;;;;4895891;29;20491;-70
2023/04/16 14:18:52;;;;;;;10.93;5.70;;;12.40;99.90;;;;;;4896140;29;20471;-70
2023/04/16 14:21:19;;;;;;;4.10;3.90;;;12.50;99.90;;;;;;4895864;29;20479;-69
2023/04/16 14:23:46;;;;;;;4.67;4.30;;;12.50;99.90;;;;;;4895332;29;20503;-70
2023/04/16 14:26:13;;;;;;;8.00;3.97;;;12.50;99.90;;;;;;4895491;29;20867;-69
2023/04/16 14:28:41;;;;;;;3.80;3.60;;;12.50;99.90;;;;;;4882454;29;20472;-70
2023/04/16 14:31:08;;;;;;;3.23;3.17;;;12.60;99.90;;;;;;4894745;29;20820;-70
2023/04/16 14:33:35;;;;;;;5.20;4.80;;;12.50;99.90;;;;;;4895456;29;20909;-70
2023/04/16 14:36:02;;;;;;;5.43;4.17;;;12.30;99.90;;;;;;4895033;29;21068;-69
2023/04/16 14:38:30;;;;;;;4.23;3.93;;;12.30;99.90;;;;;;4895771;29;20551;-70
2023/04/16 14:40:56;;;;;;;7.13;4.23;;;12.20;99.90;;;;;;4894497;29;20480;-70
2023/04/16 14:43:23;;;;;;;3.87;3.67;;;12.20;99.90;;;;;;4894906;29;20506;-69
2023/04/16 14:45:51;;;;;;;6.30;5.40;;;12.10;99.90;;;;;;4894284;29;20495;-71
2023/04/16 14:48:18;;;;;;;8.30;6.07;;;12.10;99.90;;;;;;4877192;29;20472;-69
2023/04/16 14:50:45;;;;;;;4.55;4.13;;;12.10;99.90;;;;;;4876986;29;20528;-69
2023/04/16 14:53:12;;;;;;;3.73;3.50;;;12.10;99.90;;;;;;4876741;29;20222;-70
2023/04/16 14:55:38;;;;;;;4.20;3.75;;;12.20;99.90;;;;;;4876443;29;20825;-71
2023/04/16 14:58:05;;;;;;;5.50;4.67;;;12.30;99.90;;;;;;4877790;29;20216;-71
2023/04/16 15:00:34;;;;;;;4.33;3.90;;;12.30;99.90;;;;;;4895507;29;20470;-69
2023/04/16 15:03:02;;;;;;;5.53;4.47;;;12.30;99.90;;;;;;4895509;29;20570;-71
2023/04/16 15:05:30;;;;;;;5.77;4.57;;;12.20;99.90;;;;;;4895068;29;20499;-69
2023/04/16 15:07:57;;;;;;;11.17;4.87;;;12.30;99.90;;;;;;4895215;29;20515;-70
2023/04/16 15:10:23;;;;;;;11.43;4.80;;;12.30;99.90;;;;;;4895042;29;20471;-69
2023/04/16 15:12:50;;;;;;;9.40;4.37;;;12.10;99.90;;;;;;4895199;29;20498;-68
2023/04/16 15:15:17;;;;;;;5.80;4.67;;;12.10;99.90;;;;;;4887285;29;20491;-70
2023/04/16 15:17:44;;;;;;;6.63;4.38;;;12.00;99.90;;;;;;4895721;29;20535;-69
2023/04/16 15:20:13;;;;;;;2.80;2.60;;;12.00;99.90;;;;;;4895353;29;20233;-69
2023/04/16 15:22:40;;;;;;;6.10;4.10;;;12.00;99.90;;;;;;4895209;29;20475;-70
2023/04/16 15:25:07;;;;;;;2.53;2.38;;;11.90;99.90;;;;;;4897786;29;20712;-69
2023/04/16 15:27:34;;;;;;;5.45;4.90;;;11.80;99.90;;;;;;4896173;29;20262;-68
2023/04/16 15:30:01;;;;;;;4.57;4.35;;;11.70;99.90;;;;;;4899433;29;20554;-69
2023/04/16 15:32:27;;;;;;;4.35;4.05;;;11.70;99.90;;;;;;4899691;29;20211;-70
2023/04/16 15:34:54;;;;;;;5.45;5.05;;;11.70;99.90;;;;;;4897488;29;20242;-69
2023/04/16 15:37:22;;;;;;;5.05;3.92;;;11.80;99.90;;;;;;4898855;29;20211;-69
2023/04/16 15:39:49;;;;;;;4.37;4.10;;;11.80;99.90;;;;;;4897805;29;20549;-68
2023/04/16 15:42:16;;;;;;;4.60;4.03;;;11.70;99.90;;;;;;4898989;29;20472;-70
2023/04/16 15:44:43;;;;;;;4.93;4.50;;;11.70;99.90;;;;;;4898601;29;20270;-68
2023/04/16 15:47:10;;;;;;;8.75;4.40;;;11.70;99.90;;;;;;4899338;29;20218;-70
2023/04/16 15:49:36;;;;;;;4.72;3.28;;;11.70;99.90;;;;;;4899082;29;20270;-69
2023/04/16 15:52:03;;;;;;;7.15;4.70;;;11.80;99.90;;;;;;4898742;29;20223;-70
2023/04/16 15:54:31;;;;;;;4.13;3.78;;;11.90;99.90;;;;;;4896291;29;20228;-69
2023/04/16 15:56:58;;;;;;;5.30;4.73;;;11.90;99.90;;;;;;4898698;29;20350;-69
2023/04/16 15:59:25;;;;;;;7.65;5.85;;;11.90;99.90;;;;;;4897071;29;20482;-69
2023/04/16 16:01:52;;;;;;;7.40;5.65;;;12.00;99.90;;;;;;4898881;29;20291;-69
2023/04/16 16:04:21;;;;;;;4.03;3.33;;;12.00;99.90;;;;;;4898222;29;20238;-69
2023/04/16 16:06:48;;;;;;;10.77;5.17;;;11.90;99.90;;;;;;4898681;29;20329;-69
2023/04/16 16:09:15;;;;;;;7.20;3.30;;;11.80;99.90;;;;;;4898564;29;20493;-70
2023/04/16 16:11:43;;;;;;;4.03;3.73;;;11.80;99.90;;;;;;4898867;29;20466;-69
2023/04/16 16:14:09;;;;;;;5.23;4.30;;;11.80;99.90;;;;;;4897292;29;20471;-69
2023/04/16 16:16:36;;;;;;;8.55;4.45;;;11.80;99.90;;;;;;4893234;29;20490;-69
2023/04/16 16:19:03;;;;;;;4.63;4.20;;;11.90;99.90;;;;;;4897867;29;20676;-69
2023/04/16 16:21:31;;;;;;;8.60;4.07;;;11.80;99.90;;;;;;4897822;29;20222;-68
2023/04/16 16:23:58;;;;;;;5.80;5.20;;;11.80;99.90;;;;;;4897770;29;21091;-70
2023/04/16 16:26:24;;;;;;;3.70;3.45;;;11.70;99.90;;;;;;4897853;29;20235;-69
2023/04/16 16:28:52;;;;;;;4.90;4.50;;;11.80;99.90;;;;;;4892924;29;20212;-68
2023/04/16 16:31:19;;;;;;;5.30;4.78;;;11.70;99.90;;;;;;4897963;29;20586;-69
2023/04/16 16:33:46;;;;;;;9.35;5.75;;;11.80;99.90;;;;;;4895050;29;20699;-69
2023/04/16 16:36:13;;;;;;;5.37;4.40;;;11.80;99.90;;;;;;4896895;29;20235;-70
2023/04/16 16:38:41;;;;;;;6.60;5.87;;;11.90;99.90;;;;;;4898471;29;20569;-69
2023/04/16 16:41:08;;;;;;;4.00;3.70;;;11.90;99.90;;;;;;4898050;29;20471;-69
2023/04/16 16:43:35;;;;;;;10.57;6.35;;;12.00;99.90;;;;;;4896800;29;20231;-70
2023/04/16 16:46:03;;;;;;;4.30;4.00;;;12.00;99.90;;;;;;4896947;29;20570;-70
2023/04/16 16:48:30;;;;;;;14.87;5.73;;;11.90;99.90;;;;;;4897948;29;21057;-70
2023/04/16 16:50:57;;;;;;;5.05;4.55;;;11.80;99.90;;;;;;4897917;29;20502;-69